Time;durP1;ratioP1;P1;durP2;ratioP2;P2;SDS_P1;SDS_P2;PMS_P1;PMS_P2;Temp;Humidity;BMP_temperature;BMP_pressure;BME280_temperature;BME280_humidity;BME280_pressure;Samples;Min_cycle;Max_cycle;Signal;HPM_P1;HPM_P2
2022/01/06 00:01:37;;;;;;;16.30;2.23;;;;;;;-145.18;100.00;47625.47;5027488;28;20569;-72
2022/01/06 00:04:03;;;;;;;17.43;2.10;;;;;;;-145.18;100.00;47617.66;5027508;28;20278;-72
2022/01/06 00:06:30;;;;;;;19.80;2.77;;;;;;;-145.18;100.00;47615.69;5027094;28;20034;-72
2022/01/06 00:08:56;;;;;;;22.20;3.47;;;;;;;-145.18;100.00;47631.31;5027575;28;20042;-73
2022/01/06 00:11:23;;;;;;;24.93;2.97;;;;;;;-145.18;100.00;47637.19;5027523;28;20321;-72
2022/01/06 00:14:08;;;;;;;16.30;2.40;;;;;;;-145.18;100.00;47631.31;5027709;28;20290;-72
2022/01/06 00:24:13;;;;;;;15.82;1.75;;;;;;;-145.18;100.00;47654.78;5027460;28;20270;-72
2022/01/06 00:26:39;;;;;;;26.97;2.40;;;;;;;-145.18;100.00;47658.69;5027070;28;20042;-72
2022/01/06 00:29:04;;;;;;;24.17;3.43;;;;;;;-145.18;100.00;47670.41;5027128;28;20038;-72
2022/01/06 00:31:31;;;;;;;25.00;2.93;;;;;;;-145.18;100.00;47660.63;5027063;28;20055;-72
2022/01/06 00:33:56;;;;;;;15.87;1.83;;;;;;;-145.18;100.00;47648.91;5027369;28;20630;-72
2022/01/06 00:36:22;;;;;;;27.27;3.60;;;;;;;-145.18;100.00;47652.81;5027075;28;20366;-72
2022/01/06 00:38:47;;;;;;;21.03;3.00;;;;;;;-145.18;100.00;47646.97;5026638;28;20120;-72
2022/01/06 00:41:12;;;;;;;13.97;2.00;;;;;;;-145.18;100.00;47652.81;5024914;28;20156;-72
2022/01/06 00:43:38;;;;;;;23.90;4.13;;;;;;;-145.18;100.00;47633.28;5027239;28;20406;-72
2022/01/06 00:46:03;;;;;;;18.23;2.40;;;;;;;-145.18;100.00;47648.91;5027109;28;20033;-72
2022/01/06 00:48:29;;;;;;;12.93;2.20;;;;;;;-145.18;100.00;47652.81;5027012;28;20069;-72
2022/01/06 00:50:54;;;;;;;14.10;2.77;;;;;;;-145.18;100.00;47656.72;5027529;28;20124;-72
2022/01/06 00:53:19;;;;;;;22.27;3.33;;;;;;;-145.18;100.00;47660.63;5026545;28;20041;-72
2022/01/06 00:55:45;;;;;;;23.90;2.50;;;;;;;-145.18;100.00;47646.97;5027102;28;20112;-72
2022/01/06 00:58:10;;;;;;;16.37;2.67;;;;;;;-145.18;100.00;47662.59;5026730;28;20044;-72
2022/01/06 01:00:38;;;;;;;24.87;2.83;;;;;;;-145.18;100.00;47652.81;5026758;28;20808;-72
2022/01/06 01:03:06;;;;;;;18.50;2.58;;;;;;;-145.18;100.00;47650.88;5026606;28;20045;-72
2022/01/06 01:05:32;;;;;;;21.15;2.40;;;;;;;-145.18;100.00;47666.50;5026983;28;20033;-72
2022/01/06 01:07:57;;;;;;;16.73;2.03;;;;;;;-145.18;100.00;47674.31;5027076;28;20394;-72
2022/01/06 01:10:23;;;;;;;16.20;1.97;;;;;;;-145.18;100.00;47682.13;5026615;28;20052;-72
2022/01/06 01:12:49;;;;;;;22.00;3.87;;;;;;;-145.18;100.00;47682.13;5026828;28;20037;-72
2022/01/06 01:15:19;;;;;;;13.45;3.42;;;;;;;-145.18;100.00;47664.53;5026813;28;20300;-72
2022/01/06 01:17:49;;;;;;;18.73;2.78;;;;;;;-145.18;100.00;47678.22;5026472;28;20041;-72
2022/01/06 01:20:17;;;;;;;23.63;2.58;;;;;;;-145.18;100.00;47656.72;5025618;28;20042;-72
2022/01/06 01:22:44;;;;;;;24.95;2.40;;;;;;;-145.18;100.00;47656.72;5026814;28;20022;-72
2022/01/06 01:25:10;;;;;;;17.58;2.40;;;;;;;-145.18;100.00;47650.88;5026600;28;20128;-72
2022/01/06 01:27:39;;;;;;;23.42;2.00;;;;;;;-145.18;100.00;47664.53;5026725;28;20128;-72
2022/01/06 01:30:10;;;;;;;20.00;2.25;;;;;;;-145.18;100.00;47658.69;5026782;28;20065;-73
2022/01/06 01:32:38;;;;;;;13.68;1.70;;;;;;;-145.18;100.00;47664.53;5026438;28;20490;-73
2022/01/06 01:35:07;;;;;;;16.13;1.92;;;;;;;-145.18;100.00;47670.41;5027254;28;20537;-72
2022/01/06 01:37:33;;;;;;;20.55;2.25;;;;;;;-145.18;100.00;47674.31;5026599;28;20041;-72
2022/01/06 01:39:59;;;;;;;20.58;2.92;;;;;;;-145.18;100.00;47666.50;5026524;28;20216;-72
2022/01/06 01:42:25;;;;;;;16.50;2.83;;;;;;;-145.18;100.00;47664.53;5025911;28;20041;-72
2022/01/06 01:44:52;;;;;;;19.98;2.50;;;;;;;-145.18;100.00;47670.41;5026655;28;20302;-72
2022/01/06 01:47:32;;;;;;;27.75;2.83;;;;;;;-145.18;100.00;47676.25;5026191;28;20042;-72
2022/01/06 01:50:12;;;;;;;20.05;2.17;;;;;;;-145.18;100.00;47650.88;5026525;28;20042;-72
2022/01/06 01:52:48;;;;;;;22.55;2.22;;;;;;;-145.18;100.00;47641.09;5029359;28;20034;-72
2022/01/06 01:55:23;;;;;;;15.07;1.52;;;;;;;-145.18;100.00;47650.88;5030021;28;20521;-72
2022/01/06 01:57:49;;;;;;;12.23;2.00;;;;;;;-145.18;100.00;47664.53;5029982;28;20038;-73
2022/01/06 02:00:16;;;;;;;17.38;2.15;;;;;;;-145.18;100.00;47666.50;5029645;28;20105;-72
2022/01/06 02:02:42;;;;;;;17.27;1.97;;;;;;;-145.18;100.00;47680.16;5028430;28;20042;-72
2022/01/06 02:05:09;;;;;;;24.93;4.07;;;;;;;-145.18;100.00;47664.53;5029706;28;20373;-72
2022/01/06 02:07:37;;;;;;;17.20;2.20;;;;;;;-145.18;100.00;47652.81;5028302;28;20279;-72
2022/01/06 02:10:04;;;;;;;14.77;2.33;;;;;;;-145.18;100.00;47656.72;5029938;28;20375;-72
2022/01/06 02:12:33;;;;;;;18.30;1.80;;;;;;;-145.18;100.00;47670.41;5029160;28;20124;-72
2022/01/06 02:14:59;;;;;;;15.20;2.17;;;;;;;-145.18;100.00;47668.44;5030576;28;20271;-72
2022/01/06 02:17:24;;;;;;;17.33;2.67;;;;;;;-145.18;100.00;47646.97;5029305;28;20516;-72
2022/01/06 02:19:58;;;;;;;24.27;4.27;;;;;;;-145.18;100.00;47678.22;5029613;28;20102;-72
2022/01/06 02:22:25;;;;;;;24.45;2.03;;;;;;;-145.18;100.00;47672.34;5029253;28;20046;-72
2022/01/06 02:24:51;;;;;;;17.05;2.72;;;;;;;-145.18;100.00;47695.81;5029382;28;20462;-72
2022/01/06 02:27:20;;;;;;;12.07;2.30;;;;;;;-145.18;100.00;47652.81;5029041;28;20038;-72
2022/01/06 02:29:49;;;;;;;15.57;1.80;;;;;;;-145.18;100.00;47648.91;5029515;28;20442;-72
2022/01/06 02:32:17;;;;;;;17.63;1.65;;;;;;;-145.18;100.00;47668.44;5029095;28;20252;-72
2022/01/06 02:34:46;;;;;;;23.90;2.42;;;;;;;-145.18;100.00;47672.34;5029465;28;20057;-72
2022/01/06 02:37:14;;;;;;;19.63;2.20;;;;;;;-145.18;100.00;47674.31;5028975;28;20044;-72
2022/01/06 02:39:40;;;;;;;21.73;2.92;;;;;;;-145.18;100.00;47645.00;5028928;28;20111;-72
2022/01/06 02:42:06;;;;;;;16.33;1.58;;;;;;;-145.18;100.00;47684.06;5028761;28;20053;-73
2022/01/06 02:44:32;;;;;;;19.60;2.15;;;;;;;-145.18;100.00;47682.13;5029902;28;20839;-72
2022/01/06 02:46:58;;;;;;;20.77;2.53;;;;;;;-145.18;100.00;47670.41;5028783;28;20098;-72
2022/01/06 02:49:23;;;;;;;17.03;2.20;;;;;;;-145.18;100.00;47668.44;5011194;28;20072;-72
2022/01/06 02:51:48;;;;;;;21.97;2.33;;;;;;;-145.18;100.00;47693.84;5028713;28;20064;-72
2022/01/06 02:54:14;;;;;;;10.80;1.97;;;;;;;-145.18;100.00;47656.72;5028564;28;20421;-72
2022/01/06 02:56:42;;;;;;;21.73;2.47;;;;;;;-145.18;100.00;47648.91;5028631;28;20041;-73
2022/01/06 02:59:08;;;;;;;15.40;2.83;;;;;;;-145.18;100.00;47629.38;5029432;28;20041;-72
2022/01/06 03:01:41;;;;;;;6.77;1.37;;;;;;;-145.18;100.00;47623.50;5028416;28;20393;-72
2022/01/06 03:04:07;;;;;;;20.10;2.63;;;;;;;-145.18;100.00;47672.34;5028860;28;20033;-73
2022/01/06 03:06:32;;;;;;;19.50;3.03;;;;;;;-145.18;100.00;47625.47;5028489;28;20279;-72
2022/01/06 03:08:58;;;;;;;12.10;1.23;;;;;;;-145.18;100.00;47639.13;5028668;28;20698;-72
2022/01/06 03:11:25;;;;;;;17.33;1.93;;;;;;;-145.18;100.00;47625.47;5027399;28;20120;-72
2022/01/06 03:13:52;;;;;;;16.47;1.37;;;;;;;-145.18;100.00;47629.38;5028663;28;20063;-72
2022/01/06 03:16:17;;;;;;;20.43;2.07;;;;;;;-145.18;100.00;47627.41;5028183;28;20275;-73
2022/01/06 03:18:43;;;;;;;16.80;1.77;;;;;;;-145.18;100.00;47646.97;5028963;28;20275;-72
2022/01/06 03:21:08;;;;;;;15.70;2.60;;;;;;;-145.18;100.00;47629.38;5028289;28;20409;-72
2022/01/06 03:23:33;;;;;;;12.03;1.80;;;;;;;-145.18;100.00;47635.22;5028265;28;20053;-72
2022/01/06 03:25:59;;;;;;;10.23;1.97;;;;;;;-145.18;100.00;47621.56;5010548;28;20083;-72
2022/01/06 03:28:24;;;;;;;14.37;1.33;;;;;;;-145.18;100.00;47625.47;5028092;28;20553;-72
2022/01/06 03:30:50;;;;;;;11.60;1.30;;;;;;;-145.18;100.00;47641.09;5028180;28;20132;-73
2022/01/06 03:33:15;;;;;;;12.97;1.87;;;;;;;-145.18;100.00;47635.22;5028322;28;20030;-72
2022/01/06 03:35:41;;;;;;;15.53;1.63;;;;;;;-145.18;100.00;47633.28;5028276;28;20043;-72
2022/01/06 03:38:06;;;;;;;20.30;2.33;;;;;;;-145.18;100.00;47635.22;5028096;28;20526;-72
2022/01/06 03:40:31;;;;;;;11.40;1.57;;;;;;;-145.18;100.00;47629.38;5025994;28;20064;-72
2022/01/06 03:42:57;;;;;;;11.03;1.53;;;;;;;-145.18;100.00;47637.19;5027389;28;20038;-73
2022/01/06 03:45:22;;;;;;;11.23;1.17;;;;;;;-145.18;100.00;47627.41;5028255;28;20030;-72
2022/01/06 03:47:47;;;;;;;15.80;2.20;;;;;;;-145.18;100.00;47639.13;5027814;28;20486;-72
2022/01/06 03:50:14;;;;;;;16.07;2.60;;;;;;;-145.18;100.00;47635.22;5027697;28;20068;-72
2022/01/06 03:52:40;;;;;;;20.13;2.10;;;;;;;-145.18;100.00;47637.19;5027550;28;20057;-72
2022/01/06 03:55:08;;;;;;;13.33;1.70;;;;;;;-145.18;100.00;47617.66;5027299;28;20346;-73
2022/01/06 03:57:34;;;;;;;11.23;1.87;;;;;;;-145.18;100.00;47648.91;5027109;28;20041;-73
2022/01/06 04:00:00;;;;;;;8.47;1.30;;;;;;;-145.18;100.00;47637.19;5027653;28;20275;-73
2022/01/06 04:02:25;;;;;;;15.47;2.57;;;;;;;-145.18;100.00;47654.78;5027779;28;20685;-72
2022/01/06 04:04:51;;;;;;;13.70;1.93;;;;;;;-145.18;100.00;47643.03;5027526;28;20037;-72
2022/01/06 04:07:16;;;;;;;14.27;1.50;;;;;;;-145.18;100.00;47633.28;5027030;28;20042;-72
2022/01/06 04:09:41;;;;;;;11.17;1.70;;;;;;;-145.18;100.00;47654.78;5027628;28;20516;-72
2022/01/06 04:12:10;;;;;;;14.17;2.77;;;;;;;-145.18;100.00;47664.53;5027277;28;20079;-72
2022/01/06 04:14:35;;;;;;;12.47;1.73;;;;;;;-145.18;100.00;47643.03;5026700;28;20452;-72
2022/01/06 04:17:01;;;;;;;15.03;1.53;;;;;;;-145.18;100.00;47676.25;5026796;28;20338;-73
2022/01/06 04:19:27;;;;;;;18.73;1.77;;;;;;;-145.18;100.00;47637.19;5027977;28;20042;-72
2022/01/06 04:21:53;;;;;;;14.67;1.80;;;;;;;-145.18;100.00;47668.44;5027049;28;20483;-72
2022/01/06 04:24:18;;;;;;;14.27;1.00;;;;;;;-145.18;100.00;47672.34;5026864;28;20061;-72
2022/01/06 04:26:44;;;;;;;13.30;1.23;;;;;;;-145.18;100.00;47666.50;5026774;28;20045;-72
2022/01/06 04:29:09;;;;;;;12.00;1.20;;;;;;;-145.18;100.00;47687.97;5026999;28;20037;-72
2022/01/06 04:31:35;;;;;;;11.07;1.50;;;;;;;-145.18;100.00;47684.06;5027274;28;20516;-73
2022/01/06 04:34:00;;;;;;;8.67;0.93;;;;;;;-145.18;100.00;47687.97;5027006;28;20120;-72
2022/01/06 04:36:25;;;;;;;4.17;0.90;;;;;;;-145.18;100.00;47697.75;5026720;28;20053;-72
2022/01/06 04:38:51;;;;;;;16.30;2.80;;;;;;;-145.18;100.00;47686.03;5027103;28;20488;-72
2022/01/06 04:41:16;;;;;;;12.00;1.53;;;;;;;-145.18;100.00;47674.31;5025821;28;20601;-72
2022/01/06 04:43:42;;;;;;;26.80;4.13;;;;;;;-145.18;100.00;47672.34;5026424;28;20053;-72
2022/01/06 04:46:07;;;;;;;9.73;1.07;;;;;;;-145.18;100.00;47682.13;5026989;28;20052;-74
2022/01/06 04:48:35;;;;;;;8.93;1.17;;;;;;;-145.18;100.00;47687.97;5027179;28;20115;-72
2022/01/06 04:51:00;;;;;;;11.38;1.80;;;;;;;-145.18;100.00;47713.38;5026669;28;20092;-72
2022/01/06 04:53:26;;;;;;;7.63;1.27;;;;;;;-145.18;100.00;47691.91;5026091;28;20039;-72
2022/01/06 04:55:51;;;;;;;9.17;0.93;;;;;;;-145.18;100.00;47699.72;5026456;28;20065;-72
2022/01/06 04:58:17;;;;;;;8.90;0.90;;;;;;;-145.18;100.00;47697.75;5026492;28;20399;-72
2022/01/06 05:00:42;;;;;;;10.33;0.83;;;;;;;-145.18;100.00;47672.34;5026581;28;20051;-72
2022/01/06 05:03:08;;;;;;;12.43;1.20;;;;;;;-145.18;100.00;47687.97;5027204;28;20045;-72
2022/01/06 05:05:33;;;;;;;8.60;1.13;;;;;;;-145.18;100.00;47680.16;5026615;28;20041;-72
2022/01/06 05:07:58;;;;;;;12.73;1.73;;;;;;;-145.18;100.00;47662.59;5025273;28;20041;-72
2022/01/06 05:10:24;;;;;;;10.10;1.40;;;;;;;-145.18;100.00;47660.63;5026410;28;20076;-73
2022/01/06 05:12:49;;;;;;;14.17;1.17;;;;;;;-145.18;100.00;47678.22;5026466;28;20080;-72
2022/01/06 05:15:14;;;;;;;13.23;1.03;;;;;;;-145.18;100.00;47656.72;5026651;28;20585;-72
2022/01/06 05:17:41;;;;;;;14.63;1.07;;;;;;;-145.18;100.00;47695.81;5027162;28;20053;-72
2022/01/06 05:20:07;;;;;;;7.22;1.30;;;;;;;-145.18;100.00;47672.34;5026529;28;20521;-72
2022/01/06 05:22:35;;;;;;;12.20;1.23;;;;;;;-145.18;100.00;47725.09;5024958;28;20037;-72
2022/01/06 05:25:00;;;;;;;8.70;1.30;;;;;;;-145.18;100.00;47701.66;5026230;28;20406;-72
2022/01/06 05:27:26;;;;;;;10.00;1.33;;;;;;;-145.18;100.00;47686.03;5029359;28;20037;-73
2022/01/06 05:29:52;;;;;;;6.60;0.70;;;;;;;-145.18;100.00;47697.75;5029881;28;20102;-72
2022/01/06 05:32:17;;;;;;;14.60;1.60;;;;;;;-145.18;100.00;47662.59;5029411;28;20042;-72
2022/01/06 05:34:43;;;;;;;16.53;1.87;;;;;;;-145.18;100.00;47686.03;5029435;28;20041;-72
2022/01/06 05:37:08;;;;;;;7.00;1.47;;;;;;;-145.18;100.00;47705.56;5029258;28;20029;-72
2022/01/06 05:39:33;;;;;;;14.77;1.40;;;;;;;-145.18;100.00;47691.91;5028929;28;20041;-72
2022/01/06 05:41:59;;;;;;;7.53;1.20;;;;;;;-145.18;100.00;47664.53;5028879;28;20050;-72
2022/01/06 05:44:25;;;;;;;13.60;1.57;;;;;;;-145.18;100.00;47670.41;5028889;28;20403;-73
2022/01/06 05:46:51;;;;;;;9.27;1.85;;;;;;;-145.18;100.00;47689.94;5030082;28;20469;-73
2022/01/06 05:49:16;;;;;;;8.10;0.90;;;;;;;-145.18;100.00;47697.75;5028610;28;20042;-73
2022/01/06 05:51:42;;;;;;;25.73;2.23;;;;;;;-145.18;100.00;47705.56;5029082;28;20068;-73
2022/01/06 05:54:08;;;;;;;10.90;1.70;;;;;;;-145.18;100.00;47691.91;5029093;28;20095;-72
2022/01/06 05:56:33;;;;;;;13.33;2.03;;;;;;;-145.18;100.00;47686.03;5028519;28;20041;-73
2022/01/06 05:58:59;;;;;;;17.37;1.33;;;;;;;-145.18;100.00;47695.81;5027842;28;20069;-73
2022/01/06 06:01:24;;;;;;;18.43;1.63;;;;;;;-145.18;100.00;47684.06;5029078;28;20110;-73
2022/01/06 06:03:50;;;;;;;14.33;2.43;;;;;;;-145.18;100.00;47668.44;5029466;28;20046;-72
2022/01/06 06:06:15;;;;;;;18.73;1.80;;;;;;;-145.18;100.00;47676.25;5029544;28;20136;-72
2022/01/06 06:08:41;;;;;;;11.83;1.50;;;;;;;-145.18;100.00;47672.34;5029353;28;20049;-72
2022/01/06 06:11:07;;;;;;;16.43;1.90;;;;;;;-145.18;100.00;47682.13;5028953;28;20048;-73
2022/01/06 06:13:33;;;;;;;13.88;1.40;;;;;;;-145.18;100.00;47678.22;5029180;28;20045;-72
2022/01/06 06:15:58;;;;;;;13.67;1.77;;;;;;;-145.18;100.00;47699.72;5029420;28;20128;-73
2022/01/06 06:18:24;;;;;;;15.03;2.30;;;;;;;-145.18;100.00;47693.84;5029210;28;20057;-72
2022/01/06 06:20:50;;;;;;;17.47;1.90;;;;;;;-145.18;100.00;47703.63;5011361;28;20034;-72
2022/01/06 06:23:15;;;;;;;10.10;1.50;;;;;;;-145.18;100.00;47703.63;5028802;28;20449;-73
2022/01/06 06:25:41;;;;;;;16.77;1.57;;;;;;;-145.18;100.00;47666.50;5027724;28;20044;-72
2022/01/06 06:28:06;;;;;;;17.37;1.67;;;;;;;-145.18;100.00;47695.81;5028533;28;20049;-73
2022/01/06 06:30:32;;;;;;;12.90;1.93;;;;;;;-145.18;100.00;47691.91;5029389;28;20037;-72
2022/01/06 06:32:57;;;;;;;13.33;1.60;;;;;;;-145.18;100.00;47695.81;5028079;28;20107;-72
2022/01/06 06:35:22;;;;;;;13.17;2.00;;;;;;;-145.18;100.00;47711.44;5025553;28;20517;-72
2022/01/06 06:37:48;;;;;;;11.73;1.60;;;;;;;-145.18;100.00;47672.34;5025328;28;20061;-72
2022/01/06 06:40:13;;;;;;;12.50;1.30;;;;;;;-145.18;100.00;47713.38;5028510;28;20122;-73
2022/01/06 06:42:39;;;;;;;10.00;1.50;;;;;;;-145.18;100.00;47697.75;5028484;28;20046;-72
2022/01/06 06:45:05;;;;;;;11.73;1.27;;;;;;;-145.18;100.00;47711.44;5029470;28;20044;-72
2022/01/06 06:47:32;;;;;;;24.95;1.35;;;;;;;-145.18;100.00;47699.72;5028018;28;20103;-72
2022/01/06 06:49:59;;;;;;;19.80;1.48;;;;;;;-145.18;100.00;47693.84;5027778;28;20094;-72
2022/01/06 06:52:25;;;;;;;10.65;1.55;;;;;;;-145.18;100.00;47711.44;5028266;28;20030;-72
2022/01/06 06:54:51;;;;;;;13.68;2.03;;;;;;;-145.18;100.00;47686.03;5022451;28;20394;-72
2022/01/06 06:57:16;;;;;;;12.73;1.33;;;;;;;-145.18;100.00;47703.63;5020702;28;20028;-72
2022/01/06 06:59:42;;;;;;;7.90;1.27;;;;;;;-145.18;100.00;47711.44;5025102;28;20076;-73
2022/01/06 07:02:07;;;;;;;10.60;1.20;;;;;;;-145.18;100.00;47687.97;5027275;28;20045;-73
2022/01/06 07:04:33;;;;;;;12.67;1.70;;;;;;;-145.18;100.00;47697.75;5025389;28;20073;-73
2022/01/06 07:06:58;;;;;;;14.10;1.50;;;;;;;-145.18;100.00;47711.44;5025843;28;20080;-72
2022/01/06 07:09:23;;;;;;;12.20;1.27;;;;;;;-145.18;100.00;47711.44;5025058;28;20505;-73
2022/01/06 07:11:49;;;;;;;10.37;1.07;;;;;;;-145.18;100.00;47699.72;5025018;28;20136;-73
2022/01/06 07:14:14;;;;;;;12.13;1.60;;;;;;;-145.18;100.00;47699.72;5025571;28;20037;-73
2022/01/06 07:16:39;;;;;;;12.33;2.30;;;;;;;-145.18;100.00;47703.63;5017332;28;20045;-73
2022/01/06 07:19:05;;;;;;;15.00;2.00;;;;;;;-145.18;100.00;47723.16;5025891;28;20064;-73
2022/01/06 07:21:30;;;;;;;11.37;1.57;;;;;;;-145.18;100.00;47699.72;5022009;28;20458;-73
2022/01/06 07:23:56;;;;;;;13.67;1.67;;;;;;;-145.18;100.00;47684.06;5025732;28;20065;-73
2022/01/06 07:26:21;;;;;;;10.03;1.60;;;;;;;-145.18;100.00;47686.03;5025125;28;20037;-73
2022/01/06 07:28:47;;;;;;;12.70;1.47;;;;;;;-145.18;100.00;47709.47;5026044;28;20041;-73
2022/01/06 07:31:12;;;;;;;14.17;1.67;;;;;;;-145.18;100.00;47687.97;5025958;28;20038;-73
2022/01/06 07:33:37;;;;;;;15.33;2.07;;;;;;;-145.18;100.00;47691.91;5024665;28;20045;-73
2022/01/06 07:36:04;;;;;;;9.80;1.53;;;;;;;-145.18;100.00;47709.47;5026091;28;20514;-72
2022/01/06 07:38:29;;;;;;;15.15;2.55;;;;;;;-145.18;100.00;47699.72;5024391;28;20044;-72
2022/01/06 07:40:55;;;;;;;9.47;2.00;;;;;;;-145.18;100.00;47719.25;5024760;28;20134;-73
2022/01/06 07:43:21;;;;;;;9.97;1.80;;;;;;;-145.18;100.00;47715.34;5025095;28;20030;-73
2022/01/06 07:45:48;;;;;;;10.45;1.40;;;;;;;-145.18;100.00;47713.38;5026269;28;20120;-72
2022/01/06 07:48:19;;;;;;;7.93;2.03;;;;;;;-145.18;100.00;47699.72;5024511;28;20041;-73
2022/01/06 07:50:46;;;;;;;12.40;2.20;;;;;;;-145.18;100.00;47701.66;5024957;28;20385;-73
2022/01/06 07:53:12;;;;;;;21.33;2.13;;;;;;;-145.18;100.00;47697.75;5025238;28;20563;-72
2022/01/06 07:55:37;;;;;;;11.77;3.00;;;;;;;-145.18;100.00;47703.63;5025125;28;20045;-72
2022/01/06 07:58:03;;;;;;;15.27;1.60;;;;;;;-145.18;100.00;47711.44;5024815;28;20578;-72
2022/01/06 08:00:28;;;;;;;13.33;1.33;;;;;;;-145.18;100.00;47723.16;5024639;28;20046;-72
2022/01/06 08:02:54;;;;;;;8.03;1.53;;;;;;;-145.18;100.00;47729.00;5025509;28;20049;-72
2022/01/06 08:05:24;;;;;;;12.43;2.10;;;;;;;-145.18;100.00;47729.00;5024409;28;20068;-72
2022/01/06 08:07:49;;;;;;;13.20;2.08;;;;;;;-145.18;100.00;47699.72;5024936;28;20132;-72
2022/01/06 08:10:15;;;;;;;10.93;1.87;;;;;;;-145.18;100.00;47695.81;5025237;28;20132;-72
2022/01/06 08:12:40;;;;;;;13.90;2.60;;;;;;;-145.18;100.00;47695.81;5023622;28;20041;-73
2022/01/06 08:15:07;;;;;;;11.00;1.70;;;;;;;-145.18;100.00;47687.97;5024767;28;20494;-72
2022/01/06 08:17:33;;;;;;;11.55;1.70;;;;;;;-145.18;100.00;47701.66;5021199;28;20049;-72
2022/01/06 08:20:00;;;;;;;13.55;3.58;;;;;;;-145.18;100.00;47684.06;5022653;28;20095;-72
2022/01/06 08:22:25;;;;;;;26.60;4.80;;;;;;;-145.18;100.00;47707.53;5023745;28;20038;-72
2022/01/06 08:24:54;;;;;;;25.43;3.30;;;;;;;-145.18;100.00;47672.34;5024802;28;20042;-72
2022/01/06 08:27:20;;;;;;;22.58;3.40;;;;;;;-145.18;100.00;47711.44;5023383;28;20037;-72
2022/01/06 08:29:45;;;;;;;31.43;3.40;;;;;;;-145.18;100.00;47678.22;5024583;28;20053;-72
2022/01/06 08:32:10;;;;;;;23.83;3.63;;;;;;;-145.18;100.00;47680.16;5024557;28;20045;-72
2022/01/06 08:34:36;;;;;;;11.63;3.33;;;;;;;-145.18;100.00;47691.91;5024242;28;20129;-72
2022/01/06 08:37:02;;;;;;;9.63;2.10;;;;;;;-145.18;100.00;47668.44;5025551;28;20517;-72
2022/01/06 08:39:28;;;;;;;11.57;2.78;;;;;;;-145.18;100.00;47656.72;5021907;28;20049;-72
2022/01/06 08:41:53;;;;;;;20.00;5.90;;;;;;;-145.18;100.00;47672.34;5023182;28;20053;-72
2022/01/06 08:44:20;;;;;;;19.80;3.73;;;;;;;-145.18;100.00;47676.25;5020116;28;20158;-72
2022/01/06 08:46:46;;;;;;;15.05;3.47;;;;;;;-145.18;100.00;47684.06;5022636;28;20045;-72
2022/01/06 08:49:12;;;;;;;18.90;3.30;;;;;;;-145.18;100.00;47703.63;5025074;28;20037;-71
2022/01/06 08:51:41;;;;;;;10.50;2.57;;;;;;;-145.18;100.00;47664.53;5022206;28;20752;-71
2022/01/06 08:54:07;;;;;;;12.73;2.78;;;;;;;-145.18;100.00;47691.91;5022631;28;20286;-72
2022/01/06 08:56:34;;;;;;;17.20;2.80;;;;;;;-145.18;100.00;47682.13;5022313;28;20044;-72
2022/01/06 08:58:59;;;;;;;19.65;4.47;;;;;;;-145.18;100.00;47686.03;5023485;28;20047;-72
2022/01/06 09:01:25;;;;;;;19.93;3.53;;;;;;;-145.18;100.00;47684.06;5026148;28;20055;-72
2022/01/06 09:03:51;;;;;;;15.40;3.90;;;;;;;-145.18;100.00;47687.97;5028444;28;20037;-72
2022/01/06 09:06:16;;;;;;;15.93;3.50;;;;;;;-145.18;100.00;47689.94;5026055;28;20344;-71
2022/01/06 09:08:41;;;;;;;24.33;4.27;;;;;;;-145.18;100.00;47672.34;5026182;28;20498;-72
2022/01/06 09:11:07;;;;;;;21.43;4.37;;;;;;;-145.18;100.00;47680.16;5026178;28;20509;-71
2022/01/06 09:13:32;;;;;;;23.47;4.17;;;;;;;-145.18;100.00;47668.44;5024035;28;20047;-72
2022/01/06 09:15:58;;;;;;;22.40;5.00;;;;;;;-145.18;100.00;47660.63;5026521;28;20048;-72
2022/01/06 09:18:23;;;;;;;23.87;4.43;;;;;;;-145.18;100.00;47645.00;5025148;28;20120;-72
2022/01/06 09:20:49;;;;;;;17.63;3.97;;;;;;;-145.18;100.00;47631.31;5026861;28;20029;-72
2022/01/06 09:23:15;;;;;;;20.90;3.60;;;;;;;-145.18;100.00;47645.00;5025145;28;20187;-72
2022/01/06 09:25:40;;;;;;;25.00;4.63;;;;;;;-145.18;100.00;47643.03;5026050;28;20060;-72
2022/01/06 09:28:05;;;;;;;13.77;4.93;;;;;;;-145.18;100.00;47650.88;5025035;28;20080;-72
2022/01/06 09:30:31;;;;;;;19.70;4.00;;;;;;;-145.18;100.00;47641.09;5025276;28;20061;-72
2022/01/06 09:32:56;;;;;;;19.70;5.53;;;;;;;-145.18;100.00;47625.47;5022974;28;20045;-72
2022/01/06 09:35:22;;;;;;;14.43;4.10;;;;;;;-145.18;100.00;47615.69;5023123;28;20539;-72
2022/01/06 09:37:48;;;;;;;18.30;5.03;;;;;;;-145.18;100.00;47637.19;5024882;28;20041;-73
2022/01/06 09:40:14;;;;;;;15.80;4.20;;;;;;;-145.18;100.00;47637.19;5023629;28;20037;-73
2022/01/06 09:42:43;;;;;;;23.87;4.50;;;;;;;-145.18;100.00;47605.94;5026625;28;20073;-72
2022/01/06 09:45:10;;;;;;;19.70;4.03;;;;;;;-145.18;100.00;47615.69;5027171;28;20112;-72
2022/01/06 09:47:37;;;;;;;18.23;4.10;;;;;;;-145.18;100.00;47605.94;5026870;28;21006;-73
2022/01/06 09:50:04;;;;;;;16.60;3.87;;;;;;;-145.18;100.00;47611.78;5026227;28;20279;-73
2022/01/06 09:52:29;;;;;;;20.90;4.20;;;;;;;-145.18;100.00;47592.25;5025332;28;20279;-72
2022/01/06 09:54:54;;;;;;;16.83;4.10;;;;;;;-145.18;100.00;47590.28;5025825;28;20273;-73
2022/01/06 09:57:20;;;;;;;20.00;3.27;;;;;;;-145.18;100.00;47568.81;5027153;28;20038;-73
2022/01/06 09:59:45;;;;;;;19.43;3.70;;;;;;;-145.18;100.00;47594.19;5028199;28;20030;-72
2022/01/06 10:02:16;;;;;;;20.03;3.63;;;;;;;-145.18;100.00;47574.66;5026739;28;20045;-73
2022/01/06 10:04:48;;;;;;;16.80;3.63;;;;;;;-145.18;100.00;47562.94;5027691;28;20201;-72
2022/01/06 10:07:15;;;;;;;19.90;3.63;;;;;;;-145.18;100.00;47562.94;5027500;28;20271;-72
2022/01/06 10:09:41;;;;;;;22.03;2.83;;;;;;;-145.18;100.00;47555.13;5025617;28;20324;-72
2022/01/06 10:12:11;;;;;;;19.93;3.83;;;;;;;-145.18;100.00;47568.81;5025226;28;20287;-72
2022/01/06 10:14:49;;;;;;;20.80;3.00;;;;;;;-145.18;100.00;47559.03;5025242;28;20362;-72
2022/01/06 10:17:17;;;;;;;19.03;3.00;;;;;;;-145.18;100.00;47553.16;5027091;28;20289;-73
2022/01/06 10:19:44;;;;;;;15.83;2.83;;;;;;;-145.18;100.00;47531.69;5027090;28;20802;-72
2022/01/06 10:22:15;;;;;;;29.80;3.30;;;;;;;-145.18;100.00;47539.50;5027317;28;20755;-72
2022/01/06 10:24:42;;;;;;;28.00;3.77;;;;;;;-145.18;100.00;47527.78;5026677;28;20805;-72
2022/01/06 10:27:09;;;;;;;20.70;2.73;;;;;;;-145.18;100.00;47529.72;5027450;28;20286;-72
2022/01/06 10:29:46;;;;;;;24.13;4.13;;;;;;;-145.18;100.00;47529.72;5025737;28;20333;-73
2022/01/06 10:32:14;;;;;;;15.70;3.13;;;;;;;-145.18;100.00;47541.44;5026906;28;20263;-72
2022/01/06 10:34:43;;;;;;;15.43;3.37;;;;;;;-145.18;100.00;47510.19;5026698;28;20275;-73
2022/01/06 10:37:24;;;;;;;21.77;3.23;;;;;;;-145.18;100.00;47525.81;5027084;28;20353;-72
2022/01/06 10:39:51;;;;;;;16.90;3.20;;;;;;;-145.18;100.00;47519.97;5027025;28;20721;-72
2022/01/06 10:42:17;;;;;;;12.33;2.60;;;;;;;-145.18;100.00;47518.00;5025991;28;20267;-73
2022/01/06 10:44:50;;;;;;;15.57;2.47;;;;;;;-145.18;100.00;47502.38;5026898;28;20274;-73
2022/01/06 10:47:36;;;;;;;21.70;2.93;;;;;;;-145.18;100.00;47488.69;5026721;28;20425;-72
2022/01/06 10:50:14;;;;;;;14.95;3.00;;;;;;;-145.18;100.00;47504.31;5027556;28;20282;-72
2022/01/06 10:52:43;;;;;;;19.90;3.57;;;;;;;-145.18;100.00;47500.41;5026459;28;20134;-72
2022/01/06 10:55:17;;;;;;;10.17;2.73;;;;;;;-145.18;100.00;47496.50;5027128;28;20341;-72
2022/01/06 10:57:52;;;;;;;15.50;3.60;;;;;;;-145.18;100.00;47516.06;5027036;28;20271;-73
2022/01/06 11:00:18;;;;;;;15.33;3.13;;;;;;;-145.18;100.00;47492.59;5026254;28;20275;-72
2022/01/06 11:02:44;;;;;;;12.83;2.77;;;;;;;-145.18;100.00;47504.31;5026725;28;20271;-73
2022/01/06 11:05:09;;;;;;;14.00;2.83;;;;;;;-145.18;100.00;47496.50;5027324;28;20263;-73
2022/01/06 11:07:35;;;;;;;14.40;2.13;;;;;;;-145.18;100.00;47496.50;5025980;28;20037;-72